sensor_id;sensor_type;location;lat;lon;timestamp;P1;durP1;ratioP1;P2;durP2;ratioP2
20531;SDS011;10424;52.102;8.084;2022-07-01T00:00:20;4.00;;;2.90;;
20531;SDS011;10424;52.102;8.084;2022-07-01T00:02:47;5.43;;;2.70;;
20531;SDS011;10424;52.102;8.084;2022-07-01T00:05:14;5.55;;;2.92;;
20531;SDS011;10424;52.102;8.084;2022-07-01T00:07:42;4.05;;;3.00;;
20531;SDS011;10424;52.102;8.084;2022-07-01T00:10:09;4.95;;;3.08;;
20531;SDS011;10424;52.102;8.084;2022-07-01T00:12:38;4.18;;;3.10;;
20531;SDS011;10424;52.102;8.084;2022-07-01T00:15:05;7.57;;;3.17;;
20531;SDS011;10424;52.102;8.084;2022-07-01T00:17:34;4.55;;;2.80;;
20531;SDS011;10424;52.102;8.084;2022-07-01T00:20:02;4.43;;;2.58;;
20531;SDS011;10424;52.102;8.084;2022-07-01T00:22:29;4.22;;;2.50;;
20531;SDS011;10424;52.102;8.084;2022-07-01T00:24:57;5.38;;;2.42;;
20531;SDS011;10424;52.102;8.084;2022-07-01T00:27:24;6.60;;;2.45;;
20531;SDS011;10424;52.102;8.084;2022-07-01T00:29:53;5.07;;;2.63;;
20531;SDS011;10424;52.102;8.084;2022-07-01T00:32:20;7.05;;;2.80;;
20531;SDS011;10424;52.102;8.084;2022-07-01T00:34:47;4.00;;;2.60;;
20531;SDS011;10424;52.102;8.084;2022-07-01T00:37:15;6.10;;;2.60;;
20531;SDS011;10424;52.102;8.084;2022-07-01T00:39:42;4.05;;;2.58;;
20531;SDS011;10424;52.102;8.084;2022-07-01T00:42:09;4.03;;;2.33;;
20531;SDS011;10424;52.102;8.084;2022-07-01T00:44:37;4.35;;;2.97;;
20531;SDS011;10424;52.102;8.084;2022-07-01T00:47:07;6.15;;;2.83;;
20531;SDS011;10424;52.102;8.084;2022-07-01T00:49:36;5.05;;;2.70;;
20531;SDS011;10424;52.102;8.084;2022-07-01T00:52:04;4.93;;;2.90;;
20531;SDS011;10424;52.102;8.084;2022-07-01T00:54:31;6.32;;;2.85;;
20531;SDS011;10424;52.102;8.084;2022-07-01T00:57:04;6.38;;;3.25;;
20531;SDS011;10424;52.102;8.084;2022-07-01T00:59:32;6.75;;;3.40;;
20531;SDS011;10424;52.102;8.084;2022-07-01T01:02:00;4.32;;;2.67;;
20531;SDS011;10424;52.102;8.084;2022-07-01T01:04:29;6.03;;;3.22;;
20531;SDS011;10424;52.102;8.084;2022-07-01T01:06:56;6.90;;;3.22;;
20531;SDS011;10424;52.102;8.084;2022-07-01T01:09:23;4.95;;;3.30;;
20531;SDS011;10424;52.102;8.084;2022-07-01T01:11:51;5.88;;;3.90;;
20531;SDS011;10424;52.102;8.084;2022-07-01T01:14:18;5.55;;;3.60;;
20531;SDS011;10424;52.102;8.084;2022-07-01T01:16:46;6.78;;;3.67;;
20531;SDS011;10424;52.102;8.084;2022-07-01T01:19:13;8.10;;;3.78;;
20531;SDS011;10424;52.102;8.084;2022-07-01T01:21:42;7.90;;;3.63;;
20531;SDS011;10424;52.102;8.084;2022-07-01T01:24:09;8.43;;;3.70;;
20531;SDS011;10424;52.102;8.084;2022-07-01T01:26:37;6.40;;;3.38;;
20531;SDS011;10424;52.102;8.084;2022-07-01T01:29:05;5.70;;;3.70;;
20531;SDS011;10424;52.102;8.084;2022-07-01T01:31:33;6.75;;;3.50;;
20531;SDS011;10424;52.102;8.084;2022-07-01T01:34:01;5.03;;;3.38;;
20531;SDS011;10424;52.102;8.084;2022-07-01T01:36:28;6.93;;;3.70;;
20531;SDS011;10424;52.102;8.084;2022-07-01T01:38:57;4.68;;;3.63;;
20531;SDS011;10424;52.102;8.084;2022-07-01T01:41:27;5.35;;;3.47;;
20531;SDS011;10424;52.102;8.084;2022-07-01T01:43:54;5.38;;;3.63;;
20531;SDS011;10424;52.102;8.084;2022-07-01T01:46:21;5.65;;;3.50;;
20531;SDS011;10424;52.102;8.084;2022-07-01T01:48:49;4.28;;;3.22;;
20531;SDS011;10424;52.102;8.084;2022-07-01T01:51:17;5.22;;;3.50;;
20531;SDS011;10424;52.102;8.084;2022-07-01T01:53:45;4.13;;;3.33;;
20531;SDS011;10424;52.102;8.084;2022-07-01T01:56:14;6.20;;;3.85;;
20531;SDS011;10424;52.102;8.084;2022-07-01T01:58:41;7.28;;;3.80;;
20531;SDS011;10424;52.102;8.084;2022-07-01T02:01:09;6.55;;;4.28;;
20531;SDS011;10424;52.102;8.084;2022-07-01T02:03:36;8.07;;;4.50;;
20531;SDS011;10424;52.102;8.084;2022-07-01T02:06:04;6.10;;;4.50;;
20531;SDS011;10424;52.102;8.084;2022-07-01T02:08:31;5.30;;;4.07;;
20531;SDS011;10424;52.102;8.084;2022-07-01T02:10:59;6.65;;;4.53;;
20531;SDS011;10424;52.102;8.084;2022-07-01T02:13:28;9.30;;;4.93;;
20531;SDS011;10424;52.102;8.084;2022-07-01T02:15:55;7.47;;;5.30;;
20531;SDS011;10424;52.102;8.084;2022-07-01T02:18:22;7.38;;;4.78;;
20531;SDS011;10424;52.102;8.084;2022-07-01T02:20:50;11.07;;;5.20;;
20531;SDS011;10424;52.102;8.084;2022-07-01T02:23:17;10.63;;;5.30;;
20531;SDS011;10424;52.102;8.084;2022-07-01T02:25:45;9.40;;;5.47;;
20531;SDS011;10424;52.102;8.084;2022-07-01T02:28:12;7.22;;;5.32;;
20531;SDS011;10424;52.102;8.084;2022-07-01T02:30:41;7.05;;;5.70;;
20531;SDS011;10424;52.102;8.084;2022-07-01T02:33:08;9.43;;;6.22;;
20531;SDS011;10424;52.102;8.084;2022-07-01T02:35:37;8.43;;;5.95;;
20531;SDS011;10424;52.102;8.084;2022-07-01T02:38:04;8.57;;;5.65;;
20531;SDS011;10424;52.102;8.084;2022-07-01T02:40:33;8.63;;;5.28;;
20531;SDS011;10424;52.102;8.084;2022-07-01T02:43:02;7.15;;;5.35;;
20531;SDS011;10424;52.102;8.084;2022-07-01T02:45:30;9.30;;;5.32;;
20531;SDS011;10424;52.102;8.084;2022-07-01T02:47:58;11.75;;;6.03;;
20531;SDS011;10424;52.102;8.084;2022-07-01T02:50:26;8.10;;;5.97;;
20531;SDS011;10424;52.102;8.084;2022-07-01T02:52:54;11.70;;;6.18;;
20531;SDS011;10424;52.102;8.084;2022-07-01T02:55:21;9.30;;;6.47;;
20531;SDS011;10424;52.102;8.084;2022-07-01T02:57:48;10.23;;;6.40;;
20531;SDS011;10424;52.102;8.084;2022-07-01T03:00:17;9.15;;;6.25;;
20531;SDS011;10424;52.102;8.084;2022-07-01T03:02:44;10.43;;;7.13;;
20531;SDS011;10424;52.102;8.084;2022-07-01T03:05:13;9.57;;;6.57;;
20531;SDS011;10424;52.102;8.084;2022-07-01T03:07:41;8.82;;;6.60;;
20531;SDS011;10424;52.102;8.084;2022-07-01T03:10:08;12.88;;;7.28;;
20531;SDS011;10424;52.102;8.084;2022-07-01T03:12:36;12.32;;;7.25;;
20531;SDS011;10424;52.102;8.084;2022-07-01T03:15:06;10.77;;;6.72;;
20531;SDS011;10424;52.102;8.084;2022-07-01T03:17:34;12.57;;;7.65;;
20531;SDS011;10424;52.102;8.084;2022-07-01T03:20:01;12.80;;;7.22;;
20531;SDS011;10424;52.102;8.084;2022-07-01T03:22:31;12.02;;;7.05;;
20531;SDS011;10424;52.102;8.084;2022-07-01T03:24:59;10.00;;;7.07;;
20531;SDS011;10424;52.102;8.084;2022-07-01T03:27:28;11.57;;;7.25;;
20531;SDS011;10424;52.102;8.084;2022-07-01T03:29:56;11.05;;;6.85;;
20531;SDS011;10424;52.102;8.084;2022-07-01T03:32:23;11.65;;;7.30;;
20531;SDS011;10424;52.102;8.084;2022-07-01T03:34:51;13.63;;;7.18;;
20531;SDS011;10424;52.102;8.084;2022-07-01T03:37:19;9.82;;;6.72;;
20531;SDS011;10424;52.102;8.084;2022-07-01T03:39:48;17.33;;;7.10;;
20531;SDS011;10424;52.102;8.084;2022-07-01T03:42:15;14.77;;;7.40;;
20531;SDS011;10424;52.102;8.084;2022-07-01T03:44:43;15.55;;;7.80;;
20531;SDS011;10424;52.102;8.084;2022-07-01T03:47:10;12.82;;;7.90;;
20531;SDS011;10424;52.102;8.084;2022-07-01T03:49:38;11.57;;;7.97;;
20531;SDS011;10424;52.102;8.084;2022-07-01T03:52:06;13.77;;;9.05;;
20531;SDS011;10424;52.102;8.084;2022-07-01T03:54:33;15.00;;;8.38;;
20531;SDS011;10424;52.102;8.084;2022-07-01T03:57:05;16.90;;;9.30;;
20531;SDS011;10424;52.102;8.084;2022-07-01T03:59:33;18.70;;;10.50;;
20531;SDS011;10424;52.102;8.084;2022-07-01T04:02:02;16.73;;;10.27;;
20531;SDS011;10424;52.102;8.084;2022-07-01T04:04:29;17.73;;;11.40;;
20531;SDS011;10424;52.102;8.084;2022-07-01T04:06:57;20.73;;;12.55;;
20531;SDS011;10424;52.102;8.084;2022-07-01T04:09:24;19.75;;;12.68;;
20531;SDS011;10424;52.102;8.084;2022-07-01T04:11:52;21.17;;;13.07;;
20531;SDS011;10424;52.102;8.084;2022-07-01T04:14:21;19.58;;;12.18;;
20531;SDS011;10424;52.102;8.084;2022-07-01T04:16:49;19.85;;;13.05;;
20531;SDS011;10424;52.102;8.084;2022-07-01T04:19:16;20.10;;;13.35;;
20531;SDS011;10424;52.102;8.084;2022-07-01T04:21:44;23.05;;;13.70;;
20531;SDS011;10424;52.102;8.084;2022-07-01T04:24:29;25.42;;;14.38;;
20531;SDS011;10424;52.102;8.084;2022-07-01T04:26:58;26.08;;;14.15;;
20531;SDS011;10424;52.102;8.084;2022-07-01T04:29:27;23.20;;;14.18;;
20531;SDS011;10424;52.102;8.084;2022-07-01T04:31:55;24.95;;;14.60;;
20531;SDS011;10424;52.102;8.084;2022-07-01T04:34:22;25.33;;;15.13;;
20531;SDS011;10424;52.102;8.084;2022-07-01T04:36:50;23.95;;;15.43;;
20531;SDS011;10424;52.102;8.084;2022-07-01T04:39:17;29.35;;;15.20;;
20531;SDS011;10424;52.102;8.084;2022-07-01T04:41:45;29.38;;;16.77;;
20531;SDS011;10424;52.102;8.084;2022-07-01T04:44:26;30.42;;;17.30;;
20531;SDS011;10424;52.102;8.084;2022-07-01T04:46:54;26.05;;;16.73;;
20531;SDS011;10424;52.102;8.084;2022-07-01T04:49:21;24.85;;;15.98;;
20531;SDS011;10424;52.102;8.084;2022-07-01T04:51:49;26.33;;;16.55;;
20531;SDS011;10424;52.102;8.084;2022-07-01T04:54:16;32.42;;;18.10;;
20531;SDS011;10424;52.102;8.084;2022-07-01T04:56:43;28.38;;;17.10;;
20531;SDS011;10424;52.102;8.084;2022-07-01T04:59:11;29.70;;;17.60;;
20531;SDS011;10424;52.102;8.084;2022-07-01T05:01:40;27.42;;;17.88;;
20531;SDS011;10424;52.102;8.084;2022-07-01T05:04:07;29.77;;;17.77;;
20531;SDS011;10424;52.102;8.084;2022-07-01T05:06:35;28.27;;;17.83;;
20531;SDS011;10424;52.102;8.084;2022-07-01T05:09:02;26.15;;;16.98;;
20531;SDS011;10424;52.102;8.084;2022-07-01T05:11:30;27.17;;;17.45;;
20531;SDS011;10424;52.102;8.084;2022-07-01T05:13:57;29.77;;;17.67;;
20531;SDS011;10424;52.102;8.084;2022-07-01T05:16:24;30.45;;;17.75;;
20531;SDS011;10424;52.102;8.084;2022-07-01T05:18:53;26.27;;;17.27;;
20531;SDS011;10424;52.102;8.084;2022-07-01T05:21:38;31.05;;;16.88;;
20531;SDS011;10424;52.102;8.084;2022-07-01T05:24:23;26.33;;;17.20;;
20531;SDS011;10424;52.102;8.084;2022-07-01T05:26:52;28.73;;;18.02;;
20531;SDS011;10424;52.102;8.084;2022-07-01T05:29:19;30.13;;;17.13;;
20531;SDS011;10424;52.102;8.084;2022-07-01T05:31:47;28.02;;;16.83;;
20531;SDS011;10424;52.102;8.084;2022-07-01T05:34:15;28.48;;;16.55;;
20531;SDS011;10424;52.102;8.084;2022-07-01T05:36:43;26.27;;;16.00;;
20531;SDS011;10424;52.102;8.084;2022-07-01T05:39:10;28.40;;;16.20;;
20531;SDS011;10424;52.102;8.084;2022-07-01T05:41:38;29.20;;;17.05;;
20531;SDS011;10424;52.102;8.084;2022-07-01T05:44:05;30.10;;;17.58;;
20531;SDS011;10424;52.102;8.084;2022-07-01T05:46:35;26.67;;;16.27;;
20531;SDS011;10424;52.102;8.084;2022-07-01T05:49:03;29.90;;;16.70;;
20531;SDS011;10424;52.102;8.084;2022-07-01T05:51:31;29.48;;;16.55;;
20531;SDS011;10424;52.102;8.084;2022-07-01T05:53:59;28.25;;;15.60;;
20531;SDS011;10424;52.102;8.084;2022-07-01T05:56:26;31.77;;;16.40;;
20531;SDS011;10424;52.102;8.084;2022-07-01T05:58:53;26.27;;;15.63;;
20531;SDS011;10424;52.102;8.084;2022-07-01T06:01:21;28.70;;;16.50;;
20531;SDS011;10424;52.102;8.084;2022-07-01T06:03:48;31.23;;;17.23;;
20531;SDS011;10424;52.102;8.084;2022-07-01T06:06:15;29.13;;;17.10;;
20531;SDS011;10424;52.102;8.084;2022-07-01T06:08:46;29.27;;;16.92;;
20531;SDS011;10424;52.102;8.084;2022-07-01T06:11:13;30.80;;;17.10;;
20531;SDS011;10424;52.102;8.084;2022-07-01T06:13:41;36.85;;;18.70;;
20531;SDS011;10424;52.102;8.084;2022-07-01T06:16:08;33.10;;;18.48;;
20531;SDS011;10424;52.102;8.084;2022-07-01T06:18:35;33.83;;;18.75;;
20531;SDS011;10424;52.102;8.084;2022-07-01T06:21:03;31.25;;;18.60;;
20531;SDS011;10424;52.102;8.084;2022-07-01T06:23:30;32.85;;;18.63;;
20531;SDS011;10424;52.102;8.084;2022-07-01T06:25:59;32.90;;;18.80;;
20531;SDS011;10424;52.102;8.084;2022-07-01T06:28:26;34.70;;;18.60;;
20531;SDS011;10424;52.102;8.084;2022-07-01T06:30:55;29.85;;;17.60;;
20531;SDS011;10424;52.102;8.084;2022-07-01T06:33:22;31.65;;;18.90;;
20531;SDS011;10424;52.102;8.084;2022-07-01T06:35:50;31.65;;;18.77;;
20531;SDS011;10424;52.102;8.084;2022-07-01T06:38:17;29.48;;;18.52;;
20531;SDS011;10424;52.102;8.084;2022-07-01T06:40:45;30.20;;;18.63;;
20531;SDS011;10424;52.102;8.084;2022-07-01T06:43:35;31.63;;;18.63;;
20531;SDS011;10424;52.102;8.084;2022-07-01T06:46:04;36.30;;;20.33;;
20531;SDS011;10424;52.102;8.084;2022-07-01T06:48:31;32.65;;;18.27;;
20531;SDS011;10424;52.102;8.084;2022-07-01T06:50:58;32.33;;;19.27;;
20531;SDS011;10424;52.102;8.084;2022-07-01T06:53:26;30.17;;;19.02;;
20531;SDS011;10424;52.102;8.084;2022-07-01T06:55:53;29.02;;;18.30;;
20531;SDS011;10424;52.102;8.084;2022-07-01T06:58:20;29.70;;;16.60;;
20531;SDS011;10424;52.102;8.084;2022-07-01T07:00:49;25.48;;;16.10;;
20531;SDS011;10424;52.102;8.084;2022-07-01T07:03:16;26.05;;;15.68;;
20531;SDS011;10424;52.102;8.084;2022-07-01T07:05:44;21.77;;;14.10;;
20531;SDS011;10424;52.102;8.084;2022-07-01T07:08:11;23.02;;;15.10;;
20531;SDS011;10424;52.102;8.084;2022-07-01T07:10:38;24.35;;;15.40;;
20531;SDS011;10424;52.102;8.084;2022-07-01T07:13:05;21.58;;;14.30;;
20531;SDS011;10424;52.102;8.084;2022-07-01T07:15:33;21.88;;;14.45;;
20531;SDS011;10424;52.102;8.084;2022-07-01T07:18:02;20.75;;;14.10;;
20531;SDS011;10424;52.102;8.084;2022-07-01T07:20:29;20.67;;;13.10;;
20531;SDS011;10424;52.102;8.084;2022-07-01T07:22:56;18.88;;;13.70;;
20531;SDS011;10424;52.102;8.084;2022-07-01T07:25:24;20.67;;;14.27;;
20531;SDS011;10424;52.102;8.084;2022-07-01T07:27:52;16.23;;;10.32;;
20531;SDS011;10424;52.102;8.084;2022-07-01T07:30:19;23.85;;;13.52;;
20531;SDS011;10424;52.102;8.084;2022-07-01T07:32:47;21.98;;;13.02;;
20531;SDS011;10424;52.102;8.084;2022-07-01T07:35:16;21.98;;;12.52;;
20531;SDS011;10424;52.102;8.084;2022-07-01T07:37:43;19.20;;;13.02;;
20531;SDS011;10424;52.102;8.084;2022-07-01T07:40:12;17.60;;;12.45;;
20531;SDS011;10424;52.102;8.084;2022-07-01T07:42:44;19.38;;;12.85;;
20531;SDS011;10424;52.102;8.084;2022-07-01T07:45:11;19.48;;;12.88;;
20531;SDS011;10424;52.102;8.084;2022-07-01T07:47:41;19.17;;;12.25;;
20531;SDS011;10424;52.102;8.084;2022-07-01T07:50:08;19.73;;;12.65;;
20531;SDS011;10424;52.102;8.084;2022-07-01T07:52:37;17.75;;;12.40;;
20531;SDS011;10424;52.102;8.084;2022-07-01T07:55:05;18.77;;;12.18;;
20531;SDS011;10424;52.102;8.084;2022-07-01T07:57:32;18.23;;;12.50;;
20531;SDS011;10424;52.102;8.084;2022-07-01T08:00:00;20.77;;;11.88;;
20531;SDS011;10424;52.102;8.084;2022-07-01T08:02:29;18.50;;;11.85;;
20531;SDS011;10424;52.102;8.084;2022-07-01T08:04:56;17.35;;;11.07;;
20531;SDS011;10424;52.102;8.084;2022-07-01T08:07:23;17.08;;;11.25;;
20531;SDS011;10424;52.102;8.084;2022-07-01T08:09:52;16.40;;;11.00;;
20531;SDS011;10424;52.102;8.084;2022-07-01T08:12:20;15.57;;;10.68;;
20531;SDS011;10424;52.102;8.084;2022-07-01T08:14:51;16.17;;;10.77;;
20531;SDS011;10424;52.102;8.084;2022-07-01T08:17:18;17.50;;;10.52;;
20531;SDS011;10424;52.102;8.084;2022-07-01T08:19:45;18.30;;;10.77;;
20531;SDS011;10424;52.102;8.084;2022-07-01T08:22:13;14.77;;;9.65;;
20531;SDS011;10424;52.102;8.084;2022-07-01T08:24:40;14.05;;;9.85;;
20531;SDS011;10424;52.102;8.084;2022-07-01T08:27:09;13.50;;;9.73;;
20531;SDS011;10424;52.102;8.084;2022-07-01T08:29:37;12.48;;;9.38;;
20531;SDS011;10424;52.102;8.084;2022-07-01T08:32:05;13.40;;;8.80;;
20531;SDS011;10424;52.102;8.084;2022-07-01T08:34:32;13.13;;;9.48;;
20531;SDS011;10424;52.102;8.084;2022-07-01T08:37:00;14.38;;;9.35;;
20531;SDS011;10424;52.102;8.084;2022-07-01T08:39:28;16.02;;;9.80;;
20531;SDS011;10424;52.102;8.084;2022-07-01T08:41:55;13.77;;;9.20;;
20531;SDS011;10424;52.102;8.084;2022-07-01T08:44:24;14.55;;;9.45;;
20531;SDS011;10424;52.102;8.084;2022-07-01T08:46:52;13.48;;;9.05;;
20531;SDS011;10424;52.102;8.084;2022-07-01T08:49:19;12.27;;;8.57;;
20531;SDS011;10424;52.102;8.084;2022-07-01T08:51:48;13.82;;;8.82;;
20531;SDS011;10424;52.102;8.084;2022-07-01T08:54:15;13.02;;;9.02;;
20531;SDS011;10424;52.102;8.084;2022-07-01T08:56:42;14.43;;;9.65;;
20531;SDS011;10424;52.102;8.084;2022-07-01T08:59:11;14.23;;;9.68;;
20531;SDS011;10424;52.102;8.084;2022-07-01T09:01:40;14.13;;;9.00;;
20531;SDS011;10424;52.102;8.084;2022-07-01T09:04:15;13.90;;;8.90;;
20531;SDS011;10424;52.102;8.084;2022-07-01T09:06:43;14.27;;;9.38;;
20531;SDS011;10424;52.102;8.084;2022-07-01T09:09:11;16.92;;;9.60;;
20531;SDS011;10424;52.102;8.084;2022-07-01T09:11:43;13.15;;;8.20;;
20531;SDS011;10424;52.102;8.084;2022-07-01T09:14:11;12.43;;;9.13;;
20531;SDS011;10424;52.102;8.084;2022-07-01T09:16:41;15.20;;;8.88;;
20531;SDS011;10424;52.102;8.084;2022-07-01T09:19:08;10.32;;;8.27;;
20531;SDS011;10424;52.102;8.084;2022-07-01T09:21:36;11.30;;;8.40;;
20531;SDS011;10424;52.102;8.084;2022-07-01T09:24:04;10.57;;;7.50;;
20531;SDS011;10424;52.102;8.084;2022-07-01T09:26:31;13.05;;;7.35;;
20531;SDS011;10424;52.102;8.084;2022-07-01T09:29:00;9.55;;;7.35;;
20531;SDS011;10424;52.102;8.084;2022-07-01T09:31:32;10.07;;;7.13;;
20531;SDS011;10424;52.102;8.084;2022-07-01T09:34:05;8.57;;;6.60;;
20531;SDS011;10424;52.102;8.084;2022-07-01T09:36:37;9.57;;;6.95;;
20531;SDS011;10424;52.102;8.084;2022-07-01T09:39:05;8.75;;;6.72;;
20531;SDS011;10424;52.102;8.084;2022-07-01T09:41:36;10.20;;;6.97;;
20531;SDS011;10424;52.102;8.084;2022-07-01T09:44:04;10.30;;;7.18;;
20531;SDS011;10424;52.102;8.084;2022-07-01T09:46:31;11.63;;;6.13;;
20531;SDS011;10424;52.102;8.084;2022-07-01T09:48:58;10.35;;;6.15;;
20531;SDS011;10424;52.102;8.084;2022-07-01T09:51:28;8.30;;;5.95;;
20531;SDS011;10424;52.102;8.084;2022-07-01T09:53:55;6.80;;;6.07;;
20531;SDS011;10424;52.102;8.084;2022-07-01T09:56:23;9.27;;;6.65;;
20531;SDS011;10424;52.102;8.084;2022-07-01T09:58:50;9.15;;;6.03;;
20531;SDS011;10424;52.102;8.084;2022-07-01T10:01:18;10.20;;;6.40;;
20531;SDS011;10424;52.102;8.084;2022-07-01T10:03:45;8.27;;;5.90;;
20531;SDS011;10424;52.102;8.084;2022-07-01T10:08:58;7.97;;;5.57;;
20531;SDS011;10424;52.102;8.084;2022-07-01T10:11:42;7.28;;;5.65;;
20531;SDS011;10424;52.102;8.084;2022-07-01T10:14:14;7.07;;;5.70;;
20531;SDS011;10424;52.102;8.084;2022-07-01T10:16:42;7.90;;;5.53;;
20531;SDS011;10424;52.102;8.084;2022-07-01T10:19:26;9.32;;;5.82;;
20531;SDS011;10424;52.102;8.084;2022-07-01T10:21:55;7.85;;;6.00;;
20531;SDS011;10424;52.102;8.084;2022-07-01T10:24:25;9.55;;;5.80;;
20531;SDS011;10424;52.102;8.084;2022-07-01T10:26:57;6.80;;;4.93;;
20531;SDS011;10424;52.102;8.084;2022-07-01T10:29:29;7.63;;;5.20;;
20531;SDS011;10424;52.102;8.084;2022-07-01T10:32:00;7.55;;;5.10;;
20531;SDS011;10424;52.102;8.084;2022-07-01T10:34:34;8.18;;;4.93;;
20531;SDS011;10424;52.102;8.084;2022-07-01T10:37:02;6.60;;;4.53;;
20531;SDS011;10424;52.102;8.084;2022-07-01T10:39:34;8.25;;;4.50;;
20531;SDS011;10424;52.102;8.084;2022-07-01T10:42:20;7.20;;;4.53;;
20531;SDS011;10424;52.102;8.084;2022-07-01T10:45:04;6.40;;;4.57;;
20531;SDS011;10424;52.102;8.084;2022-07-01T10:47:32;6.72;;;4.30;;
20531;SDS011;10424;52.102;8.084;2022-07-01T10:50:02;6.00;;;4.25;;
20531;SDS011;10424;52.102;8.084;2022-07-01T10:52:30;5.00;;;3.95;;
20531;SDS011;10424;52.102;8.084;2022-07-01T10:54:59;6.97;;;4.20;;
20531;SDS011;10424;52.102;8.084;2022-07-01T10:57:31;6.10;;;3.22;;
20531;SDS011;10424;52.102;8.084;2022-07-01T11:02:45;5.55;;;3.10;;
20531;SDS011;10424;52.102;8.084;2022-07-01T11:05:13;5.72;;;3.38;;
20531;SDS011;10424;52.102;8.084;2022-07-01T11:07:41;6.00;;;3.35;;
20531;SDS011;10424;52.102;8.084;2022-07-01T11:10:11;7.25;;;3.20;;
20531;SDS011;10424;52.102;8.084;2022-07-01T11:12:40;4.50;;;3.20;;
20531;SDS011;10424;52.102;8.084;2022-07-01T11:15:09;5.20;;;3.15;;
20531;SDS011;10424;52.102;8.084;2022-07-01T11:17:41;8.85;;;2.78;;
20531;SDS011;10424;52.102;8.084;2022-07-01T11:20:10;4.72;;;2.80;;
20531;SDS011;10424;52.102;8.084;2022-07-01T11:22:37;4.22;;;2.88;;
20531;SDS011;10424;52.102;8.084;2022-07-01T11:25:05;7.75;;;3.60;;
20531;SDS011;10424;52.102;8.084;2022-07-01T11:27:35;5.10;;;2.80;;
20531;SDS011;10424;52.102;8.084;2022-07-01T11:30:03;5.15;;;3.08;;
20531;SDS011;10424;52.102;8.084;2022-07-01T11:32:32;4.20;;;2.60;;
20531;SDS011;10424;52.102;8.084;2022-07-01T11:35:01;3.55;;;2.42;;
20531;SDS011;10424;52.102;8.084;2022-07-01T11:37:29;4.03;;;2.50;;
20531;SDS011;10424;52.102;8.084;2022-07-01T11:40:14;3.92;;;2.90;;
20531;SDS011;10424;52.102;8.084;2022-07-01T11:42:44;3.95;;;2.40;;
20531;SDS011;10424;52.102;8.084;2022-07-01T11:45:21;4.18;;;2.20;;
20531;SDS011;10424;52.102;8.084;2022-07-01T11:47:49;4.30;;;2.08;;
20531;SDS011;10424;52.102;8.084;2022-07-01T11:50:16;3.17;;;2.25;;
20531;SDS011;10424;52.102;8.084;2022-07-01T11:52:45;5.05;;;2.47;;
20531;SDS011;10424;52.102;8.084;2022-07-01T11:55:12;4.38;;;2.95;;
20531;SDS011;10424;52.102;8.084;2022-07-01T11:57:40;6.43;;;2.83;;
20531;SDS011;10424;52.102;8.084;2022-07-01T12:00:10;4.40;;;2.90;;
20531;SDS011;10424;52.102;8.084;2022-07-01T12:02:38;3.30;;;2.30;;
20531;SDS011;10424;52.102;8.084;2022-07-01T12:05:05;3.40;;;2.50;;
20531;SDS011;10424;52.102;8.084;2022-07-01T12:07:33;3.60;;;2.17;;
20531;SDS011;10424;52.102;8.084;2022-07-01T12:10:01;4.22;;;2.40;;
20531;SDS011;10424;52.102;8.084;2022-07-01T12:12:28;4.43;;;2.25;;
20531;SDS011;10424;52.102;8.084;2022-07-01T12:14:56;3.15;;;2.28;;
20531;SDS011;10424;52.102;8.084;2022-07-01T12:17:25;6.40;;;2.50;;
20531;SDS011;10424;52.102;8.084;2022-07-01T12:19:53;3.80;;;2.55;;
20531;SDS011;10424;52.102;8.084;2022-07-01T12:22:21;4.43;;;2.25;;
20531;SDS011;10424;52.102;8.084;2022-07-01T12:24:50;3.85;;;2.50;;
20531;SDS011;10424;52.102;8.084;2022-07-01T12:27:19;2.80;;;2.17;;
20531;SDS011;10424;52.102;8.084;2022-07-01T12:29:51;3.53;;;2.40;;
20531;SDS011;10424;52.102;8.084;2022-07-01T12:32:20;4.00;;;2.20;;
20531;SDS011;10424;52.102;8.084;2022-07-01T12:34:50;6.93;;;2.10;;
20531;SDS011;10424;52.102;8.084;2022-07-01T12:37:19;3.38;;;1.98;;
20531;SDS011;10424;52.102;8.084;2022-07-01T12:39:47;4.70;;;2.03;;
20531;SDS011;10424;52.102;8.084;2022-07-01T12:42:22;3.53;;;2.03;;
20531;SDS011;10424;52.102;8.084;2022-07-01T12:44:50;4.00;;;2.28;;
20531;SDS011;10424;52.102;8.084;2022-07-01T12:47:19;3.78;;;2.13;;
20531;SDS011;10424;52.102;8.084;2022-07-01T12:49:46;3.95;;;2.50;;
20531;SDS011;10424;52.102;8.084;2022-07-01T12:52:24;3.55;;;2.05;;
20531;SDS011;10424;52.102;8.084;2022-07-01T12:54:52;2.92;;;2.05;;
20531;SDS011;10424;52.102;8.084;2022-07-01T12:57:28;3.55;;;2.10;;
20531;SDS011;10424;52.102;8.084;2022-07-01T12:59:55;3.42;;;2.03;;
20531;SDS011;10424;52.102;8.084;2022-07-01T13:02:23;2.58;;;1.80;;
20531;SDS011;10424;52.102;8.084;2022-07-01T13:04:50;2.22;;;1.92;;
20531;SDS011;10424;52.102;8.084;2022-07-01T13:07:18;3.35;;;1.70;;
20531;SDS011;10424;52.102;8.084;2022-07-01T13:09:46;4.70;;;1.90;;
20531;SDS011;10424;52.102;8.084;2022-07-01T13:12:14;4.45;;;1.80;;
20531;SDS011;10424;52.102;8.084;2022-07-01T13:14:41;2.75;;;1.90;;
20531;SDS011;10424;52.102;8.084;2022-07-01T13:17:09;2.53;;;1.60;;
20531;SDS011;10424;52.102;8.084;2022-07-01T13:19:36;3.67;;;1.83;;
20531;SDS011;10424;52.102;8.084;2022-07-01T13:22:05;3.30;;;2.00;;
20531;SDS011;10424;52.102;8.084;2022-07-01T13:24:32;2.67;;;1.88;;
20531;SDS011;10424;52.102;8.084;2022-07-01T13:27:01;2.10;;;1.90;;
20531;SDS011;10424;52.102;8.084;2022-07-01T13:29:29;3.40;;;1.75;;
20531;SDS011;10424;52.102;8.084;2022-07-01T13:31:56;2.33;;;1.67;;
20531;SDS011;10424;52.102;8.084;2022-07-01T13:34:24;3.38;;;2.00;;
20531;SDS011;10424;52.102;8.084;2022-07-01T13:36:51;2.88;;;1.80;;
20531;SDS011;10424;52.102;8.084;2022-07-01T13:39:18;2.08;;;1.45;;
20531;SDS011;10424;52.102;8.084;2022-07-01T13:41:46;3.50;;;1.40;;
20531;SDS011;10424;52.102;8.084;2022-07-01T13:44:15;2.78;;;1.13;;
20531;SDS011;10424;52.102;8.084;2022-07-01T13:46:42;3.95;;;1.45;;
20531;SDS011;10424;52.102;8.084;2022-07-01T13:49:09;2.63;;;1.20;;
20531;SDS011;10424;52.102;8.084;2022-07-01T13:51:36;4.38;;;1.25;;
20531;SDS011;10424;52.102;8.084;2022-07-01T13:54:04;1.60;;;1.20;;
20531;SDS011;10424;52.102;8.084;2022-07-01T13:56:31;2.30;;;1.20;;
20531;SDS011;10424;52.102;8.084;2022-07-01T13:58:58;2.17;;;1.10;;
20531;SDS011;10424;52.102;8.084;2022-07-01T14:01:27;4.82;;;1.10;;
20531;SDS011;10424;52.102;8.084;2022-07-01T14:03:56;3.15;;;1.00;;
20531;SDS011;10424;52.102;8.084;2022-07-01T14:06:23;2.22;;;0.90;;
20531;SDS011;10424;52.102;8.084;2022-07-01T14:08:51;1.15;;;0.90;;
20531;SDS011;10424;52.102;8.084;2022-07-01T14:11:18;3.50;;;1.10;;
20531;SDS011;10424;52.102;8.084;2022-07-01T14:13:45;2.08;;;1.00;;
20531;SDS011;10424;52.102;8.084;2022-07-01T14:16:13;1.85;;;0.90;;
20531;SDS011;10424;52.102;8.084;2022-07-01T14:18:41;1.55;;;0.90;;
20531;SDS011;10424;52.102;8.084;2022-07-01T14:21:10;2.05;;;0.80;;
20531;SDS011;10424;52.102;8.084;2022-07-01T14:23:37;2.35;;;0.73;;
20531;SDS011;10424;52.102;8.084;2022-07-01T14:26:04;3.33;;;0.88;;
20531;SDS011;10424;52.102;8.084;2022-07-01T14:28:32;1.50;;;0.80;;
20531;SDS011;10424;52.102;8.084;2022-07-01T14:30:59;1.42;;;0.80;;
20531;SDS011;10424;52.102;8.084;2022-07-01T14:33:27;1.67;;;0.70;;
20531;SDS011;10424;52.102;8.084;2022-07-01T14:35:56;1.50;;;0.90;;
20531;SDS011;10424;52.102;8.084;2022-07-01T14:38:23;1.88;;;0.90;;
20531;SDS011;10424;52.102;8.084;2022-07-01T14:40:50;1.88;;;1.10;;
20531;SDS011;10424;52.102;8.084;2022-07-01T14:43:18;2.75;;;1.00;;
20531;SDS011;10424;52.102;8.084;2022-07-01T14:45:45;3.95;;;1.00;;
20531;SDS011;10424;52.102;8.084;2022-07-01T14:48:13;4.47;;;1.10;;
20531;SDS011;10424;52.102;8.084;2022-07-01T14:50:41;1.58;;;1.05;;